Time;durP1;ratioP1;P1;durP2;ratioP2;P2;SDS_P1;SDS_P2;PMS_P1;PMS_P2;Temp;Humidity;BMP_temperature;BMP_pressure;BME280_temperature;BME280_humidity;BME280_pressure;Samples;Min_cycle;Max_cycle;Signal;HPM_P1;HPM_P2
2023/05/28 00:01:38;;;;;;;10.57;3.50;;;12.30;99.90;;;;;;4040560;29;20049;-83
2023/05/28 00:03:41;;;;;;;14.30;3.70;;;12.30;99.90;;;;;;4041893;29;20049;-83
2023/05/28 00:05:42;;;;;;;13.60;3.30;;;12.30;99.90;;;;;;4024082;29;20049;-84
2023/05/28 00:07:43;;;;;;;11.73;3.55;;;12.30;99.90;;;;;;4038849;29;20104;-84
2023/05/28 00:09:46;;;;;;;14.68;5.15;;;12.30;99.90;;;;;;4009348;29;20061;-83
2023/05/28 00:11:47;;;;;;;16.30;3.97;;;12.30;99.90;;;;;;4038563;29;20049;-84
2023/05/28 00:13:48;;;;;;;8.93;3.38;;;12.30;99.90;;;;;;4040635;29;20048;-84
2023/05/28 00:15:48;;;;;;;12.52;4.13;;;12.30;99.90;;;;;;4023431;29;20052;-84
2023/05/28 00:17:52;;;;;;;10.70;3.50;;;12.30;99.90;;;;;;4024544;29;20046;-84
2023/05/28 00:19:53;;;;;;;11.23;3.70;;;12.30;99.90;;;;;;4038891;29;20490;-83
2023/05/28 00:21:53;;;;;;;8.00;3.95;;;12.20;99.90;;;;;;4041228;29;20053;-84
2023/05/28 00:23:54;;;;;;;12.55;3.40;;;12.20;99.90;;;;;;4024257;29;20050;-84
2023/05/28 00:25:55;;;;;;;19.17;5.18;;;12.20;99.90;;;;;;4039874;29;20409;-84
2023/05/28 00:27:56;;;;;;;16.00;3.50;;;12.20;99.90;;;;;;4040877;29;20051;-83
2023/05/28 00:29:56;;;;;;;10.40;2.85;;;12.10;99.90;;;;;;4023549;29;20101;-83
2023/05/28 00:31:57;;;;;;;8.73;3.28;;;12.20;99.90;;;;;;4024226;29;20033;-83
2023/05/28 00:33:58;;;;;;;12.60;3.97;;;12.20;99.90;;;;;;4038985;29;20124;-83
2023/05/28 00:35:58;;;;;;;7.90;3.10;;;12.10;99.90;;;;;;4024164;29;20143;-84
2023/05/28 00:37:59;;;;;;;8.35;3.47;;;12.10;99.90;;;;;;4039110;29;20053;-83
2023/05/28 00:40:00;;;;;;;9.15;2.78;;;12.10;99.90;;;;;;4040667;29;20546;-83
2023/05/28 00:42:05;;;;;;;9.15;3.13;;;12.10;99.90;;;;;;4040100;29;20114;-83
2023/05/28 00:44:08;;;;;;;11.10;4.07;;;12.10;99.90;;;;;;4040221;29;20053;-83
2023/05/28 00:46:10;;;;;;;13.68;3.70;;;12.10;99.90;;;;;;4040659;29;20105;-83
2023/05/28 00:48:11;;;;;;;11.90;3.72;;;12.10;99.90;;;;;;4039802;29;20053;-83
2023/05/28 00:50:13;;;;;;;9.00;3.30;;;12.00;99.90;;;;;;4040646;29;20056;-83
2023/05/28 00:52:13;;;;;;;17.98;4.50;;;12.00;99.90;;;;;;4040112;29;20506;-84
2023/05/28 00:54:15;;;;;;;16.10;4.38;;;12.00;99.90;;;;;;4024519;29;20061;-84
2023/05/28 00:56:16;;;;;;;12.27;3.40;;;11.90;99.90;;;;;;4034195;29;20049;-84
2023/05/28 00:58:19;;;;;;;15.90;3.70;;;11.90;99.90;;;;;;4023981;29;20053;-84
2023/05/28 01:00:20;;;;;;;8.73;3.58;;;11.90;99.90;;;;;;4024920;29;20045;-84
2023/05/28 01:02:21;;;;;;;14.25;3.75;;;11.90;99.90;;;;;;4034018;29;20520;-84
2023/05/28 01:04:22;;;;;;;11.23;3.08;;;11.90;99.90;;;;;;4040476;29;20085;-84
2023/05/28 01:06:23;;;;;;;9.05;3.22;;;12.00;99.90;;;;;;4040112;29;20677;-84
2023/05/28 01:08:23;;;;;;;10.30;2.92;;;12.00;99.90;;;;;;4040785;29;20049;-84
2023/05/28 01:10:24;;;;;;;9.02;3.33;;;11.30;99.90;;;;;;4039854;29;20044;-84
2023/05/28 01:12:25;;;;;;;17.10;5.10;;;12.00;99.90;;;;;;4022904;29;20057;-84
2023/05/28 01:14:27;;;;;;;12.60;3.72;;;12.00;99.90;;;;;;4034960;29;20049;-84
2023/05/28 01:16:29;;;;;;;10.73;3.90;;;12.00;99.90;;;;;;4039006;29;20049;-84
2023/05/28 01:18:34;;;;;;;14.00;3.90;;;12.00;99.90;;;;;;4039638;29;20060;-84
2023/05/28 01:20:35;;;;;;;9.50;3.70;;;11.90;99.90;;;;;;4039180;29;20075;-84
2023/05/28 01:22:45;;;;;;;14.40;4.45;;;11.90;99.90;;;;;;4040189;29;20125;-84
2023/05/28 01:24:48;;;;;;;11.52;3.30;;;11.90;99.90;;;;;;4039370;29;20045;-84
2023/05/28 01:26:50;;;;;;;17.90;4.38;;;11.90;99.90;;;;;;4039125;29;20053;-84
2023/05/28 01:28:50;;;;;;;11.70;3.63;;;11.90;99.90;;;;;;4039355;29;20056;-84
2023/05/28 01:30:52;;;;;;;11.15;3.50;;;11.90;99.90;;;;;;4039109;29;20136;-84
2023/05/28 01:32:54;;;;;;;12.10;3.38;;;11.80;99.90;;;;;;4039773;29;20105;-84
2023/05/28 01:34:56;;;;;;;8.90;3.25;;;11.80;99.90;;;;;;4039297;29;20049;-83
2023/05/28 01:37:07;;;;;;;8.07;3.25;;;11.80;99.90;;;;;;4038813;29;20064;-84
2023/05/28 01:39:12;;;;;;;11.20;3.78;;;11.80;99.90;;;;;;4031768;29;20109;-83
2023/05/28 01:41:14;;;;;;;11.85;4.15;;;11.80;99.90;;;;;;4038985;29;20182;-84
2023/05/28 01:43:16;;;;;;;12.10;4.25;;;11.80;99.90;;;;;;4023189;29;20057;-83
2023/05/28 01:45:18;;;;;;;10.88;3.92;;;11.70;99.90;;;;;;4033324;29;20124;-83
2023/05/28 01:47:19;;;;;;;13.18;3.88;;;11.70;99.90;;;;;;4022078;29;20054;-84
2023/05/28 01:49:20;;;;;;;12.52;4.70;;;11.70;99.90;;;;;;4033917;29;20052;-84
2023/05/28 01:51:22;;;;;;;11.95;3.35;;;11.70;99.90;;;;;;4038334;29;20483;-84
2023/05/28 01:53:23;;;;;;;12.93;4.97;;;11.70;99.90;;;;;;4039354;29;20481;-84
2023/05/28 01:55:24;;;;;;;12.70;4.30;;;11.70;99.90;;;;;;4022048;29;20049;-84
2023/05/28 01:57:25;;;;;;;11.48;3.83;;;11.70;99.90;;;;;;4022627;29;20050;-84
2023/05/28 01:59:26;;;;;;;12.20;3.50;;;11.70;99.90;;;;;;4034107;29;20140;-84
2023/05/28 02:01:33;;;;;;;9.63;3.70;;;11.70;99.90;;;;;;4022070;29;20419;-84
2023/05/28 02:03:33;;;;;;;14.30;3.72;;;11.70;99.90;;;;;;4035222;29;20041;-83
2023/05/28 02:05:34;;;;;;;11.98;3.95;;;11.60;99.90;;;;;;4039456;29;20045;-84
2023/05/28 02:07:35;;;;;;;14.98;3.80;;;11.70;99.90;;;;;;4039977;29;20045;-83
2023/05/28 02:09:36;;;;;;;17.00;3.67;;;11.70;99.90;;;;;;4022797;29;20128;-84
2023/05/28 02:11:36;;;;;;;18.00;5.35;;;11.70;99.90;;;;;;4023192;29;20057;-83
2023/05/28 02:13:39;;;;;;;12.48;4.32;;;11.70;99.90;;;;;;4036118;29;20091;-84
2023/05/28 02:15:40;;;;;;;16.23;5.15;;;11.60;99.90;;;;;;4022542;29;20049;-83
2023/05/28 02:17:41;;;;;;;15.43;4.68;;;11.60;99.90;;;;;;4036525;29;20080;-84
2023/05/28 02:19:41;;;;;;;11.48;3.65;;;11.60;99.90;;;;;;4039360;29;20049;-84
2023/05/28 02:21:42;;;;;;;12.00;3.45;;;11.60;99.90;;;;;;4039480;29;20036;-84
2023/05/28 02:23:45;;;;;;;12.05;4.38;;;11.60;99.90;;;;;;4022147;29;20061;-83
2023/05/28 02:25:46;;;;;;;10.73;3.75;;;11.60;99.90;;;;;;4037319;29;20129;-84
2023/05/28 02:27:46;;;;;;;19.13;4.72;;;11.60;99.90;;;;;;4039384;29;20052;-84
2023/05/28 02:29:48;;;;;;;17.70;4.25;;;11.60;99.90;;;;;;4023564;29;20424;-83
2023/05/28 02:31:50;;;;;;;12.02;4.28;;;11.60;99.90;;;;;;4037594;29;20067;-84
2023/05/28 02:33:51;;;;;;;12.00;3.60;;;11.60;99.90;;;;;;4022511;29;20049;-84
2023/05/28 02:35:51;;;;;;;11.73;4.18;;;11.60;99.90;;;;;;4022371;29;20053;-84
2023/05/28 02:37:52;;;;;;;12.43;4.78;;;11.60;99.90;;;;;;4037230;29;20135;-84
2023/05/28 02:39:53;;;;;;;11.20;4.65;;;11.60;99.90;;;;;;4039143;29;20536;-84
2023/05/28 02:41:55;;;;;;;8.13;3.75;;;11.50;99.90;;;;;;4039164;29;20120;-84
2023/05/28 02:43:56;;;;;;;13.02;3.83;;;11.50;99.90;;;;;;4039298;29;20057;-84
2023/05/28 02:45:58;;;;;;;15.15;4.70;;;11.50;99.90;;;;;;4038736;29;20383;-83
2023/05/28 02:47:58;;;;;;;11.15;3.50;;;11.50;99.90;;;;;;4039157;29;20417;-84
2023/05/28 02:49:59;;;;;;;18.00;5.97;;;11.40;99.90;;;;;;4039791;29;20084;-83
2023/05/28 02:52:00;;;;;;;13.02;4.18;;;11.40;99.90;;;;;;4022052;29;20550;-84
2023/05/28 02:54:00;;;;;;;12.90;3.53;;;11.40;99.90;;;;;;4007383;29;20502;-84
2023/05/28 02:56:01;;;;;;;14.65;4.18;;;11.40;99.90;;;;;;4038242;29;20048;-84
2023/05/28 02:58:02;;;;;;;8.60;3.67;;;11.40;99.90;;;;;;4039130;29;20132;-84
2023/05/28 03:00:04;;;;;;;12.38;3.95;;;11.40;99.90;;;;;;4022772;29;20064;-84
2023/05/28 03:02:05;;;;;;;14.25;4.50;;;11.30;99.90;;;;;;4031573;29;20502;-84
2023/05/28 03:04:05;;;;;;;10.23;4.07;;;11.30;99.90;;;;;;4038965;29;20041;-83
2023/05/28 03:06:07;;;;;;;15.07;4.70;;;11.30;99.90;;;;;;4038913;29;20483;-84
2023/05/28 03:08:08;;;;;;;11.77;3.83;;;11.30;99.90;;;;;;4039060;29;20102;-84
2023/05/28 03:10:09;;;;;;;16.40;4.35;;;11.30;99.90;;;;;;4038028;29;20045;-85
2023/05/28 03:12:10;;;;;;;12.07;4.95;;;11.30;99.90;;;;;;4022622;29;20107;-84
2023/05/28 03:14:11;;;;;;;9.50;4.03;;;11.20;99.90;;;;;;4021703;29;20061;-84
2023/05/28 03:16:11;;;;;;;11.13;5.57;;;11.20;99.90;;;;;;4031841;29;20406;-84
2023/05/28 03:18:13;;;;;;;14.25;4.47;;;11.20;99.90;;;;;;4039083;29;20510;-84
2023/05/28 03:20:15;;;;;;;13.13;5.00;;;10.70;99.90;;;;;;4005985;29;20112;-84
2023/05/28 03:22:16;;;;;;;13.43;4.18;;;11.20;99.90;;;;;;4032374;29;20056;-84
2023/05/28 03:24:17;;;;;;;17.20;4.80;;;11.10;99.90;;;;;;4024232;29;20541;-84
2023/05/28 03:26:17;;;;;;;14.32;3.92;;;11.10;99.90;;;;;;4024878;29;20045;-84
2023/05/28 03:28:18;;;;;;;14.60;4.00;;;11.10;99.90;;;;;;4034486;29;20137;-84
2023/05/28 03:30:21;;;;;;;10.88;3.72;;;11.10;99.90;;;;;;4041951;29;20430;-84
2023/05/28 03:32:21;;;;;;;11.65;3.92;;;11.10;99.90;;;;;;4024957;29;20058;-84
2023/05/28 03:34:23;;;;;;;8.20;3.90;;;11.10;99.90;;;;;;4036565;29;20091;-84
2023/05/28 03:36:27;;;;;;;11.63;4.13;;;11.10;99.90;;;;;;4042183;29;20486;-84
2023/05/28 03:38:27;;;;;;;9.13;3.65;;;11.00;99.90;;;;;;4026529;29;20081;-84
2023/05/28 03:40:29;;;;;;;11.90;4.10;;;11.00;99.90;;;;;;4040507;29;20064;-84
2023/05/28 03:42:31;;;;;;;10.63;3.92;;;11.00;99.90;;;;;;4042013;29;20124;-84
2023/05/28 03:44:31;;;;;;;10.88;3.75;;;11.00;99.90;;;;;;4042243;29;20053;-83
2023/05/28 03:46:32;;;;;;;10.80;3.53;;;11.00;99.90;;;;;;4036821;29;20053;-83
2023/05/28 03:48:33;;;;;;;11.05;4.15;;;11.00;99.90;;;;;;4042036;29;20089;-84
2023/05/28 03:50:35;;;;;;;8.90;3.78;;;11.00;99.90;;;;;;4041645;29;20509;-84
2023/05/28 03:52:35;;;;;;;11.00;4.05;;;11.00;99.90;;;;;;4041373;29;20080;-85
2023/05/28 03:54:37;;;;;;;15.63;3.83;;;11.00;99.90;;;;;;4041627;29;20074;-84
2023/05/28 03:56:38;;;;;;;14.35;5.57;;;10.90;99.90;;;;;;4041258;29;20045;-84
2023/05/28 03:58:38;;;;;;;12.15;4.97;;;10.90;99.90;;;;;;4041780;29;20405;-84
2023/05/28 04:00:39;;;;;;;9.60;3.88;;;10.90;99.90;;;;;;4040313;29;20049;-84
2023/05/28 04:02:40;;;;;;;10.10;4.13;;;10.90;99.90;;;;;;4041259;29;20052;-84
2023/05/28 04:04:40;;;;;;;12.70;4.18;;;10.80;99.90;;;;;;4040842;29;20052;-83
2023/05/28 04:06:41;;;;;;;11.38;4.18;;;10.90;99.90;;;;;;4040622;29;20056;-83
2023/05/28 04:08:42;;;;;;;14.77;4.45;;;10.90;99.90;;;;;;4037034;29;20045;-84
2023/05/28 04:10:43;;;;;;;12.52;4.53;;;10.90;99.90;;;;;;4040119;29;20049;-83
2023/05/28 04:12:43;;;;;;;8.77;3.25;;;10.90;99.90;;;;;;4037083;29;20429;-83
2023/05/28 04:14:44;;;;;;;10.00;4.38;;;10.80;99.90;;;;;;4039169;29;20565;-84
2023/05/28 04:16:45;;;;;;;12.93;4.00;;;10.80;99.90;;;;;;4040773;29;20052;-83
2023/05/28 04:18:46;;;;;;;10.55;4.03;;;10.90;99.90;;;;;;4039896;29;20517;-83
2023/05/28 04:20:47;;;;;;;8.80;3.45;;;10.80;99.90;;;;;;4040789;29;20053;-84
2023/05/28 04:22:47;;;;;;;16.27;4.97;;;10.80;99.90;;;;;;4037615;29;20503;-83
2023/05/28 04:24:51;;;;;;;11.50;3.58;;;10.80;99.90;;;;;;4040174;29;20072;-83
2023/05/28 04:26:53;;;;;;;9.82;4.13;;;10.80;99.90;;;;;;4040377;29;20080;-84
2023/05/28 04:28:54;;;;;;;13.85;3.80;;;10.80;99.90;;;;;;4039550;29;20052;-84
2023/05/28 04:30:55;;;;;;;10.52;4.85;;;10.90;99.90;;;;;;4037748;29;20056;-84
2023/05/28 04:32:56;;;;;;;13.05;4.13;;;10.90;99.90;;;;;;4039068;29;20049;-84
2023/05/28 04:34:57;;;;;;;9.82;3.50;;;10.90;99.90;;;;;;4040504;29;20049;-83
2023/05/28 04:36:59;;;;;;;18.45;4.63;;;10.90;99.90;;;;;;4040967;29;20109;-83
2023/05/28 04:39:01;;;;;;;14.27;5.32;;;11.00;99.90;;;;;;4037870;29;20061;-84
2023/05/28 04:41:04;;;;;;;17.15;4.25;;;11.00;99.90;;;;;;4040588;29;20053;-84
2023/05/28 04:43:06;;;;;;;10.48;3.60;;;11.00;99.90;;;;;;4039676;29;20044;-84
2023/05/28 04:45:08;;;;;;;10.07;3.80;;;11.00;99.90;;;;;;4016623;29;20042;-83
2023/05/28 04:47:09;;;;;;;11.85;4.60;;;11.00;99.90;;;;;;4038486;29;20041;-83
2023/05/28 04:49:14;;;;;;;13.75;4.50;;;11.10;99.90;;;;;;4039251;29;20056;-84
2023/05/28 04:51:14;;;;;;;19.23;5.90;;;11.20;99.90;;;;;;4039981;29;20048;-83
2023/05/28 04:53:15;;;;;;;13.25;4.45;;;11.20;99.90;;;;;;4032347;29;20388;-83
2023/05/28 04:55:16;;;;;;;14.32;4.38;;;11.20;99.90;;;;;;4040394;29;20079;-84
2023/05/28 04:57:17;;;;;;;9.82;3.78;;;11.30;99.90;;;;;;4039885;29;20466;-83
2023/05/28 04:59:18;;;;;;;18.88;3.90;;;11.30;99.90;;;;;;4019424;29;20062;-84
2023/05/28 05:01:18;;;;;;;12.00;4.38;;;11.30;99.90;;;;;;4040551;29;20409;-83
2023/05/28 05:03:20;;;;;;;12.90;3.80;;;11.40;99.90;;;;;;4041083;29;20383;-84
2023/05/28 05:05:20;;;;;;;8.13;3.22;;;11.10;99.90;;;;;;4034813;29;20080;-84
2023/05/28 05:07:22;;;;;;;12.00;3.30;;;11.40;99.90;;;;;;4040837;29;20052;-84
2023/05/28 05:09:23;;;;;;;13.35;3.70;;;11.50;99.90;;;;;;4034581;29;20046;-84
2023/05/28 05:11:26;;;;;;;10.65;3.53;;;11.60;99.90;;;;;;4043327;29;20091;-84
2023/05/28 05:13:26;;;;;;;12.68;3.90;;;11.70;99.90;;;;;;4041548;29;20053;-84
2023/05/28 05:15:27;;;;;;;11.35;3.60;;;11.70;99.90;;;;;;4040634;29;20402;-85
2023/05/28 05:17:28;;;;;;;8.93;3.30;;;11.80;99.90;;;;;;4041954;29;20053;-84
2023/05/28 05:19:29;;;;;;;9.00;3.40;;;11.80;99.90;;;;;;4041453;29;20088;-84
2023/05/28 05:21:29;;;;;;;10.90;3.90;;;11.90;99.90;;;;;;4035469;29;20124;-84
2023/05/28 05:23:30;;;;;;;10.57;3.47;;;12.00;99.90;;;;;;4042159;29;20060;-84
2023/05/28 05:25:31;;;;;;;9.45;3.50;;;12.10;99.90;;;;;;4040298;29;20044;-84
2023/05/28 05:27:35;;;;;;;12.23;3.60;;;12.20;99.90;;;;;;4040877;29;20056;-83
2023/05/28 05:29:36;;;;;;;13.00;2.90;;;12.30;99.90;;;;;;4039830;29;20469;-84
2023/05/28 05:31:37;;;;;;;12.10;3.58;;;12.40;99.90;;;;;;4041264;29;20081;-84
2023/05/28 05:33:38;;;;;;;11.55;3.45;;;12.50;99.90;;;;;;4035187;29;20409;-84
2023/05/28 05:35:40;;;;;;;10.80;3.20;;;12.60;99.90;;;;;;4040046;29;20073;-84
2023/05/28 05:37:41;;;;;;;10.80;3.17;;;12.70;99.90;;;;;;4035225;29;20527;-84
2023/05/28 05:39:41;;;;;;;13.43;3.38;;;12.80;99.90;;;;;;4037428;29;20061;-84
2023/05/28 05:41:42;;;;;;;10.70;3.90;;;12.90;99.90;;;;;;4038806;29;20076;-84
2023/05/28 05:43:43;;;;;;;10.05;4.13;;;13.00;99.90;;;;;;4038188;29;20067;-84
2023/05/28 05:45:44;;;;;;;11.50;3.47;;;13.00;99.90;;;;;;4038721;29;20048;-84
2023/05/28 05:47:46;;;;;;;11.10;4.78;;;13.20;99.90;;;;;;4039006;29;20084;-84
2023/05/28 05:49:47;;;;;;;13.65;4.13;;;13.20;99.90;;;;;;4036440;29;20052;-83
2023/05/28 05:51:47;;;;;;;13.23;4.57;;;13.30;99.90;;;;;;4038584;29;20041;-82
2023/05/28 05:53:48;;;;;;;9.90;3.75;;;13.40;99.90;;;;;;4035563;29;20057;-83
2023/05/28 05:55:49;;;;;;;12.70;3.95;;;13.40;99.90;;;;;;4039790;29;20053;-83
2023/05/28 05:57:49;;;;;;;10.85;3.72;;;13.50;99.90;;;;;;4036155;29;20065;-84
2023/05/28 05:59:50;;;;;;;12.43;4.53;;;13.60;99.90;;;;;;4039287;29;20045;-83
2023/05/28 06:01:51;;;;;;;10.35;3.58;;;13.70;99.90;;;;;;4038632;29;20059;-84
2023/05/28 06:03:52;;;;;;;10.68;3.60;;;13.80;99.90;;;;;;4038846;29;20456;-83
2023/05/28 06:05:53;;;;;;;13.40;3.80;;;13.80;99.90;;;;;;4035081;29;20044;-83
2023/05/28 06:07:55;;;;;;;10.25;3.65;;;13.90;99.90;;;;;;4038135;29;20088;-84
2023/05/28 06:09:56;;;;;;;13.65;3.78;;;14.00;99.90;;;;;;4037638;29;20105;-83
2023/05/28 06:11:57;;;;;;;14.27;3.83;;;14.10;99.90;;;;;;4037691;29;20052;-84
2023/05/28 06:13:58;;;;;;;16.38;4.60;;;14.10;99.90;;;;;;4037885;29;20045;-84
2023/05/28 06:15:59;;;;;;;9.38;3.47;;;14.20;99.90;;;;;;4037456;29;20101;-84
2023/05/28 06:18:00;;;;;;;16.85;5.30;;;14.30;99.90;;;;;;4037486;29;20471;-84
2023/05/28 06:20:04;;;;;;;13.60;4.22;;;14.30;99.90;;;;;;4038084;29;20128;-84
2023/05/28 06:22:06;;;;;;;12.02;3.35;;;14.40;99.90;;;;;;4031519;29;20120;-84
2023/05/28 06:24:07;;;;;;;10.63;3.72;;;14.50;99.90;;;;;;4038673;29;20049;-85
2023/05/28 06:26:08;;;;;;;14.05;3.38;;;14.60;99.90;;;;;;4029648;29;20544;-84
2023/05/28 06:28:09;;;;;;;9.02;2.55;;;14.60;99.90;;;;;;4039240;29;20052;-84
2023/05/28 06:30:10;;;;;;;14.23;3.33;;;14.70;99.90;;;;;;4037951;29;20049;-84
2023/05/28 06:32:13;;;;;;;10.63;3.13;;;15.10;99.90;;;;;;4038490;29;20049;-84
2023/05/28 06:34:13;;;;;;;14.73;3.38;;;14.80;99.90;;;;;;4038277;29;20053;-84
2023/05/28 06:36:15;;;;;;;8.82;3.45;;;14.80;99.90;;;;;;4038416;29;20053;-84
2023/05/28 06:38:16;;;;;;;11.82;3.22;;;14.90;99.90;;;;;;4038356;29;20083;-84
2023/05/28 06:40:17;;;;;;;14.15;3.40;;;14.90;99.90;;;;;;4038807;29;20053;-84
2023/05/28 06:42:17;;;;;;;12.25;3.63;;;15.00;99.90;;;;;;4038863;29;20063;-84
2023/05/28 06:44:19;;;;;;;8.80;2.90;;;15.10;99.90;;;;;;4037875;29;20033;-85
2023/05/28 06:46:21;;;;;;;10.05;2.33;;;15.20;99.90;;;;;;4038904;29;20480;-84
2023/05/28 06:48:21;;;;;;;9.10;3.67;;;15.20;99.90;;;;;;4038485;29;20134;-84
2023/05/28 06:50:22;;;;;;;10.65;2.92;;;15.30;99.90;;;;;;4039307;29;20063;-84
2023/05/28 06:52:24;;;;;;;11.60;2.88;;;15.40;99.90;;;;;;4038662;29;20549;-84
2023/05/28 06:54:24;;;;;;;11.82;3.58;;;15.40;99.90;;;;;;4039360;29;20044;-84
2023/05/28 06:56:27;;;;;;;11.05;2.90;;;15.50;99.90;;;;;;4021967;29;20102;-84
2023/05/28 06:58:28;;;;;;;11.43;2.97;;;15.60;99.90;;;;;;4018724;29;20068;-83
2023/05/28 07:00:29;;;;;;;8.93;3.15;;;15.60;99.90;;;;;;4038109;29;20131;-83
2023/05/28 07:02:30;;;;;;;11.02;3.63;;;15.70;99.90;;;;;;4036926;29;20065;-84
2023/05/28 07:04:30;;;;;;;17.77;4.28;;;15.80;99.90;;;;;;4051004;29;20041;-84
2023/05/28 07:06:33;;;;;;;10.38;3.30;;;15.80;99.90;;;;;;4053691;29;20141;-83
2023/05/28 07:08:35;;;;;;;8.90;2.80;;;15.90;99.90;;;;;;4054634;29;20083;-83
2023/05/28 07:10:36;;;;;;;9.02;2.70;;;16.00;99.90;;;;;;4053869;29;20050;-83
2023/05/28 07:12:37;;;;;;;12.63;3.10;;;16.10;99.90;;;;;;4053789;29;20052;-83
2023/05/28 07:14:38;;;;;;;9.38;3.03;;;16.20;99.90;;;;;;4053400;29;20053;-82
2023/05/28 07:16:39;;;;;;;11.18;3.17;;;16.20;99.90;;;;;;4053114;29;20092;-83
2023/05/28 07:18:40;;;;;;;9.02;2.70;;;16.30;99.90;;;;;;4053102;29;20056;-83
2023/05/28 07:20:42;;;;;;;6.93;2.10;;;16.40;99.90;;;;;;4020623;29;20486;-84
2023/05/28 07:22:43;;;;;;;6.28;2.13;;;16.50;99.90;;;;;;4050708;29;20056;-83
2023/05/28 07:24:44;;;;;;;7.28;2.22;;;16.60;99.90;;;;;;4053470;29;20045;-82
2023/05/28 07:26:45;;;;;;;4.25;2.28;;;16.70;99.90;;;;;;4052527;29;20052;-83
2023/05/28 07:28:46;;;;;;;6.35;2.00;;;16.80;99.90;;;;;;4053620;29;20113;-83
2023/05/28 07:30:47;;;;;;;6.15;2.20;;;16.90;99.90;;;;;;4053386;29;20054;-83
2023/05/28 07:32:48;;;;;;;5.07;1.92;;;17.00;99.90;;;;;;4053734;29;20045;-83
2023/05/28 07:34:48;;;;;;;3.80;1.60;;;17.10;99.90;;;;;;4053302;29;20488;-83
2023/05/28 07:36:49;;;;;;;5.22;2.20;;;17.20;99.90;;;;;;4054051;29;20045;-83
2023/05/28 07:38:50;;;;;;;4.85;1.80;;;17.20;99.90;;;;;;4058417;29;20140;-84
2023/05/28 07:40:51;;;;;;;5.15;2.00;;;17.20;99.90;;;;;;4069229;29;20048;-83
2023/05/28 07:42:51;;;;;;;6.47;2.05;;;17.30;99.90;;;;;;4068842;29;20060;-83
2023/05/28 07:44:52;;;;;;;5.00;1.73;;;17.40;99.90;;;;;;4067711;29;20059;-83
2023/05/28 07:46:53;;;;;;;4.75;2.00;;;17.50;99.90;;;;;;4068829;29;20063;-83
2023/05/28 07:48:54;;;;;;;5.22;1.88;;;17.60;99.90;;;;;;4068401;29;20052;-83
2023/05/28 07:50:54;;;;;;;7.55;2.20;;;17.70;99.90;;;;;;4068836;29;20448;-84
2023/05/28 07:52:55;;;;;;;5.55;1.98;;;17.70;99.90;;;;;;4051526;29;20048;-84
2023/05/28 07:54:59;;;;;;;6.35;2.25;;;17.90;99.90;;;;;;4068777;29;20601;-84
2023/05/28 07:57:00;;;;;;;4.93;2.10;;;18.00;99.90;;;;;;4068596;29;20555;-83
2023/05/28 07:59:01;;;;;;;6.03;2.88;;;18.10;99.90;;;;;;4068361;29;20044;-83
2023/05/28 08:01:08;;;;;;;5.65;2.38;;;18.10;99.90;;;;;;4068942;29;20060;-83
2023/05/28 08:03:11;;;;;;;4.88;2.38;;;18.20;99.90;;;;;;4068241;29;20052;-83
2023/05/28 08:05:12;;;;;;;6.78;3.33;;;18.30;99.90;;;;;;4068206;29;20119;-83
2023/05/28 08:07:13;;;;;;;5.55;2.33;;;18.40;99.90;;;;;;4051440;29;20405;-83
2023/05/28 08:09:17;;;;;;;6.65;2.58;;;18.50;99.90;;;;;;4070206;29;20091;-82
2023/05/28 08:11:18;;;;;;;8.38;3.70;;;18.60;99.90;;;;;;4071193;29;20040;-82
2023/05/28 08:13:19;;;;;;;6.32;2.38;;;18.80;99.90;;;;;;4070558;29;20090;-83
2023/05/28 08:15:20;;;;;;;9.95;3.08;;;18.80;99.90;;;;;;4071138;29;20063;-83
2023/05/28 08:17:22;;;;;;;7.97;2.83;;;19.00;99.90;;;;;;4070696;29;20044;-83
2023/05/28 08:19:23;;;;;;;6.53;2.47;;;19.10;99.90;;;;;;4070944;29;20059;-83
2023/05/28 08:21:26;;;;;;;9.52;3.78;;;19.30;99.90;;;;;;4070288;29;20166;-83
2023/05/28 08:23:27;;;;;;;5.00;2.80;;;19.40;99.80;;;;;;4070639;29;20059;-83
2023/05/28 08:25:38;;;;;;;7.75;3.35;;;19.60;99.90;;;;;;4071459;29;20047;-83
2023/05/28 08:27:39;;;;;;;8.40;3.15;;;19.70;99.30;;;;;;4070780;29;20036;-83
2023/05/28 08:29:39;;;;;;;8.35;2.33;;;19.70;99.80;;;;;;4070307;29;20098;-83
2023/05/28 08:31:40;;;;;;;7.18;2.67;;;19.80;99.90;;;;;;4053846;29;20044;-83
2023/05/28 08:33:41;;;;;;;5.68;2.45;;;20.00;99.50;;;;;;4070986;29;20111;-83
2023/05/28 08:35:42;;;;;;;7.50;2.95;;;20.10;99.20;;;;;;4053874;29;20092;-82
2023/05/28 08:37:42;;;;;;;7.45;2.50;;;20.30;99.20;;;;;;4070297;29;20051;-83
2023/05/28 08:39:43;;;;;;;7.97;2.80;;;20.40;99.00;;;;;;4069785;29;20048;-84
2023/05/28 08:41:45;;;;;;;10.32;3.38;;;20.60;98.40;;;;;;4070113;29;20036;-83
2023/05/28 08:43:46;;;;;;;8.57;3.05;;;20.60;97.50;;;;;;4054198;29;20049;-84
2023/05/28 08:45:46;;;;;;;9.93;3.67;;;20.70;97.50;;;;;;4070431;29;20378;-83
2023/05/28 08:47:48;;;;;;;6.95;2.65;;;20.80;97.50;;;;;;4054268;29;20055;-83
2023/05/28 08:49:53;;;;;;;8.48;3.20;;;20.90;97.50;;;;;;4071489;29;20044;-83
2023/05/28 08:51:55;;;;;;;6.40;2.60;;;21.10;97.20;;;;;;4054111;29;20059;-84
2023/05/28 08:53:56;;;;;;;8.73;3.22;;;21.30;97.10;;;;;;4070822;29;20048;-84
2023/05/28 08:55:58;;;;;;;10.38;3.58;;;21.50;97.10;;;;;;4069909;29;20056;-84
2023/05/28 08:57:59;;;;;;;6.63;2.80;;;21.60;97.00;;;;;;4054151;29;20060;-83
2023/05/28 09:00:05;;;;;;;7.13;2.50;;;21.70;96.90;;;;;;4070409;29;20052;-84
2023/05/28 09:02:07;;;;;;;9.32;3.17;;;21.80;96.50;;;;;;4062669;29;20564;-84
2023/05/28 09:04:08;;;;;;;7.15;2.75;;;21.90;96.20;;;;;;4070451;29;20048;-83
2023/05/28 09:06:09;;;;;;;8.43;3.15;;;22.00;95.80;;;;;;4053537;29;20466;-84
2023/05/28 09:08:12;;;;;;;7.07;3.22;;;22.20;95.60;;;;;;4070948;29;20040;-84
2023/05/28 09:10:15;;;;;;;6.35;2.75;;;22.40;95.40;;;;;;4054052;29;20079;-83
2023/05/28 09:12:21;;;;;;;5.63;3.15;;;22.50;95.00;;;;;;4071371;29;20112;-83
2023/05/28 09:14:25;;;;;;;6.50;2.85;;;22.60;94.40;;;;;;4070588;29;20056;-84
2023/05/28 09:16:25;;;;;;;7.25;3.10;;;22.70;94.20;;;;;;4053721;29;20131;-84
2023/05/28 09:18:26;;;;;;;7.53;3.08;;;22.80;94.40;;;;;;4070717;29;20067;-84
2023/05/28 09:20:27;;;;;;;6.88;3.20;;;22.90;94.20;;;;;;4070632;29;20411;-84
2023/05/28 09:22:28;;;;;;;6.63;3.28;;;23.00;94.00;;;;;;4070267;29;20400;-83
2023/05/28 09:24:33;;;;;;;8.73;3.15;;;23.10;93.80;;;;;;4069909;29;20052;-84
2023/05/28 09:26:34;;;;;;;8.88;4.57;;;23.30;93.40;;;;;;4070145;29;20048;-84
2023/05/28 09:28:35;;;;;;;9.60;3.60;;;23.40;93.60;;;;;;4070047;29;20452;-84
2023/05/28 09:30:37;;;;;;;7.78;3.17;;;23.60;93.00;;;;;;4070399;29;20040;-84
2023/05/28 09:32:38;;;;;;;6.10;2.92;;;23.80;92.80;;;;;;4070518;29;20063;-84
2023/05/28 09:34:42;;;;;;;8.43;4.05;;;23.90;92.00;;;;;;4070031;29;20539;-83
2023/05/28 09:36:43;;;;;;;8.25;3.80;;;24.10;91.10;;;;;;4053480;29;20079;-84
2023/05/28 09:38:44;;;;;;;9.30;3.55;;;24.10;90.10;;;;;;4069976;29;20060;-84
2023/05/28 09:40:45;;;;;;;8.90;3.95;;;24.10;89.30;;;;;;4070179;29;20708;-84
2023/05/28 09:42:46;;;;;;;10.02;4.00;;;24.10;89.00;;;;;;4071062;29;20083;-83
2023/05/28 09:44:48;;;;;;;9.70;4.68;;;24.20;88.30;;;;;;4069682;29;20048;-82
2023/05/28 09:46:48;;;;;;;7.32;3.90;;;24.30;86.80;;;;;;4069331;29;20040;-83
2023/05/28 09:48:49;;;;;;;6.47;3.47;;;24.60;86.10;;;;;;4069176;29;20056;-84
2023/05/28 09:50:52;;;;;;;9.18;4.13;;;24.60;84.90;;;;;;4069586;29;20044;-83
2023/05/28 09:52:55;;;;;;;7.57;3.40;;;24.60;84.90;;;;;;4068912;29;20103;-83
2023/05/28 09:54:58;;;;;;;10.43;4.25;;;24.70;83.20;;;;;;4070359;29;20052;-86
2023/05/28 09:57:02;;;;;;;7.85;4.35;;;24.60;82.80;;;;;;4052972;29;20116;-84
2023/05/28 09:59:06;;;;;;;11.13;4.15;;;24.80;81.00;;;;;;4061867;29;20145;-84
2023/05/28 10:01:10;;;;;;;7.78;4.13;;;25.10;79.40;;;;;;4070467;29;20054;-84
2023/05/28 10:03:42;;;;;;;6.57;3.83;;;25.20;78.70;;;;;;4037619;29;20131;-84
2023/05/28 10:05:44;;;;;;;7.68;3.28;;;25.20;77.50;;;;;;4070066;29;20044;-84
2023/05/28 10:07:48;;;;;;;7.25;3.60;;;25.20;77.80;;;;;;4070115;29;20131;-84
2023/05/28 10:09:50;;;;;;;7.47;3.13;;;25.20;77.30;;;;;;4070250;29;20083;-84
2023/05/28 10:12:07;;;;;;;7.10;3.30;;;25.20;76.70;;;;;;4070390;29;20489;-84
2023/05/28 10:14:09;;;;;;;5.65;3.17;;;25.40;73.70;;;;;;4070462;29;20080;-83
2023/05/28 10:16:12;;;;;;;6.40;3.28;;;25.60;74.30;;;;;;4069715;29;20052;-83
2023/05/28 10:18:15;;;;;;;7.25;3.50;;;25.70;72.70;;;;;;4053254;29;20117;-83
2023/05/28 10:20:18;;;;;;;6.28;2.55;;;25.90;72.40;;;;;;4069468;29;20396;-82
2023/05/28 10:22:19;;;;;;;4.40;2.78;;;26.00;70.10;;;;;;4052717;29;20056;-83
2023/05/28 10:24:20;;;;;;;6.00;2.60;;;26.10;69.50;;;;;;4070089;29;20539;-83
2023/05/28 10:26:21;;;;;;;4.20;2.22;;;26.00;68.10;;;;;;4069521;29;20123;-84
2023/05/28 10:28:22;;;;;;;6.43;2.10;;;26.00;66.70;;;;;;4053485;29;20052;-84